createdAt,value
2023-02-15T00:03:33.365Z,60.30
2023-02-15T00:08:36.774Z,59.00
2023-02-15T00:13:43.893Z,54.30
2023-02-15T00:18:47.255Z,49.20
2023-02-15T00:23:50.850Z,50.00
2023-02-15T00:28:54.337Z,48.57
2023-02-15T00:33:57.732Z,50.57
2023-02-15T00:39:01.280Z,46.43
2023-02-15T00:44:05.125Z,56.90
2023-02-15T00:49:08.695Z,58.77
2023-02-15T00:54:12.112Z,50.60
2023-02-15T00:59:15.342Z,52.33
2023-02-15T01:04:18.548Z,62.40
2023-02-15T01:09:22.067Z,67.27
2023-02-15T01:14:25.629Z,51.03
2023-02-15T01:19:29.142Z,51.50
2023-02-15T01:24:32.604Z,61.83
2023-02-15T01:29:35.835Z,66.47
2023-02-15T01:34:39.067Z,66.57
2023-02-15T01:39:42.757Z,72.10
2023-02-15T01:45:16.065Z,81.03
2023-02-15T01:50:22.362Z,71.20
2023-02-15T01:55:29.685Z,69.97
2023-02-15T02:00:34.734Z,71.63
2023-02-15T02:05:40.289Z,76.57
2023-02-15T02:10:44.351Z,94.10
2023-02-15T02:16:02.056Z,90.50
2023-02-15T02:21:24.004Z,85.30
2023-02-15T02:26:42.940Z,85.33
2023-02-15T02:32:01.587Z,91.77
2023-02-15T02:37:40.444Z,79.83
2023-02-15T02:42:50.958Z,81.13
2023-02-15T02:48:25.184Z,84.10
2023-02-15T02:53:31.277Z,80.37
2023-02-15T02:58:46.973Z,79.90
2023-02-15T03:03:59.909Z,76.37
2023-02-15T03:09:36.094Z,87.80
2023-02-15T03:14:42.258Z,77.07
2023-02-15T03:19:47.927Z,71.67
2023-02-15T03:24:57.479Z,70.97
2023-02-15T03:30:03.534Z,70.83
2023-02-15T03:35:08.500Z,65.67
2023-02-15T03:40:32.411Z,68.37
2023-02-15T03:45:39.088Z,58.40
2023-02-15T03:51:01.321Z,58.20
2023-02-15T03:56:04.811Z,56.17
2023-02-15T04:01:53.756Z,47.93
2023-02-15T04:06:57.026Z,49.40
2023-02-15T04:12:00.248Z,43.20
2023-02-15T04:17:07.586Z,47.57
2023-02-15T04:22:29.488Z,54.50
2023-02-15T04:27:32.764Z,49.47
2023-02-15T04:32:37.327Z,66.57
2023-02-15T04:37:42.067Z,51.03
2023-02-15T04:42:45.444Z,51.20
2023-02-15T04:47:48.772Z,58.80
2023-02-15T04:52:52.330Z,59.00
2023-02-15T04:57:55.641Z,60.67
2023-02-15T05:02:59.305Z,50.17
2023-02-15T05:08:02.686Z,52.47
2023-02-15T05:13:06.044Z,57.53
2023-02-15T05:18:09.324Z,65.40
2023-02-15T05:23:12.807Z,62.67
2023-02-15T05:28:22.477Z,59.27
2023-02-15T05:33:26.017Z,55.13
2023-02-15T05:38:29.927Z,62.73
2023-02-15T05:43:33.910Z,56.87
2023-02-15T05:48:37.256Z,62.70
2023-02-15T05:53:41.085Z,68.57
2023-02-15T05:58:44.540Z,68.17
2023-02-15T06:03:48.047Z,61.33
2023-02-15T06:08:51.505Z,57.80
2023-02-15T06:13:55.030Z,57.27
2023-02-15T06:18:58.396Z,64.03
2023-02-15T06:24:02.104Z,72.40
2023-02-15T06:29:06.054Z,74.63
2023-02-15T06:34:09.618Z,61.77
2023-02-15T06:39:13.186Z,60.93
2023-02-15T06:44:16.832Z,65.90
2023-02-15T06:49:20.100Z,60.67
2023-02-15T06:54:23.292Z,59.47
2023-02-15T06:59:26.642Z,68.97
2023-02-15T07:04:31.080Z,65.83
2023-02-15T07:09:34.465Z,59.03
2023-02-15T07:14:37.947Z,61.20
2023-02-15T07:19:41.435Z,60.97
2023-02-15T07:24:44.771Z,64.27
2023-02-15T07:29:48.294Z,59.50
2023-02-15T07:34:51.411Z,62.73
2023-02-15T07:39:54.787Z,68.50
2023-02-15T07:44:58.393Z,83.57
2023-02-15T07:50:01.795Z,99.17
2023-02-15T07:55:05.543Z,111.13
2023-02-15T08:00:09.364Z,64.47
2023-02-15T08:05:13.012Z,78.47
2023-02-15T08:10:36.322Z,65.23
2023-02-15T08:15:40.063Z,68.43
2023-02-15T08:20:43.529Z,69.13
2023-02-15T08:25:47.046Z,63.67
2023-02-15T08:30:50.290Z,64.33
2023-02-15T08:35:53.782Z,58.17
2023-02-15T08:40:57.111Z,64.27
2023-02-15T08:46:00.364Z,68.63
2023-02-15T08:51:15.504Z,68.33
2023-02-15T08:56:31.064Z,88.20
2023-02-15T09:01:35.716Z,82.10
2023-02-15T09:06:40.456Z,69.37
2023-02-15T09:11:45.865Z,56.53
2023-02-15T09:16:52.161Z,67.27
2023-02-15T09:21:55.792Z,67.60
2023-02-15T09:26:58.919Z,58.37
2023-02-15T09:32:02.204Z,61.03
2023-02-15T09:37:07.763Z,60.40
2023-02-15T09:42:41.082Z,51.07
2023-02-15T09:47:53.910Z,50.70
2023-02-15T09:53:13.266Z,50.53
2023-02-15T09:58:49.757Z,46.73
2023-02-15T10:04:21.202Z,56.27
2023-02-15T10:09:51.226Z,42.70
2023-02-15T10:15:04.262Z,53.10
2023-02-15T10:20:19.288Z,62.03
2023-02-15T10:25:40.742Z,59.60
2023-02-15T10:30:47.706Z,41.53
2023-02-15T10:35:56.690Z,51.87
2023-02-15T10:41:03.047Z,54.87
2023-02-15T10:46:31.367Z,50.10
2023-02-15T10:52:12.127Z,54.43
2023-02-15T10:57:24.546Z,53.27
2023-02-15T11:02:56.856Z,51.67
2023-02-15T11:08:05.251Z,55.10
2023-02-15T11:13:17.793Z,49.77
2023-02-15T11:18:34.110Z,46.97
2023-02-15T11:23:41.882Z,49.37
2023-02-15T11:29:14.812Z,44.87
2023-02-15T11:34:41.751Z,46.27
2023-02-15T11:39:45.737Z,58.37
2023-02-15T11:45:40.995Z,55.20
2023-02-15T11:50:45.903Z,54.90
2023-02-15T11:55:52.075Z,58.40
2023-02-15T12:01:04.461Z,63.37
2023-02-15T12:06:34.439Z,49.83
2023-02-15T12:11:42.458Z,46.27
2023-02-15T12:16:52.300Z,50.20
2023-02-15T12:21:55.529Z,57.57
2023-02-15T12:27:05.460Z,51.77
2023-02-15T12:32:24.236Z,54.20
2023-02-15T12:37:37.121Z,57.67
2023-02-15T12:42:45.857Z,57.13
2023-02-15T12:48:10.851Z,61.77
2023-02-15T12:53:26.575Z,55.97
2023-02-15T12:58:32.233Z,56.10
2023-02-15T13:03:36.627Z,49.40
2023-02-15T13:08:50.350Z,61.20
2023-02-15T13:14:18.608Z,64.17
2023-02-15T13:19:28.179Z,60.83
2023-02-15T13:24:40.972Z,58.93
2023-02-15T13:29:52.155Z,54.07
2023-02-15T13:35:05.362Z,55.20
2023-02-15T13:40:29.699Z,54.03
2023-02-15T13:45:58.869Z,56.80
2023-02-15T13:51:19.660Z,52.53
2023-02-15T13:56:50.949Z,51.70
2023-02-15T14:02:23.091Z,46.07
2023-02-15T14:07:49.360Z,54.97
2023-02-15T14:13:33.732Z,52.90
2023-02-15T14:18:52.647Z,49.30
2023-02-15T14:24:19.494Z,49.47
2023-02-15T14:30:05.039Z,48.97
2023-02-15T14:35:20.005Z,52.40
2023-02-15T14:40:59.354Z,66.57
2023-02-15T14:46:44.328Z,62.13
2023-02-15T14:51:51.549Z,59.00
2023-02-15T14:57:03.518Z,59.30
2023-02-15T15:02:10.668Z,54.10
2023-02-15T15:07:13.735Z,51.97
2023-02-15T15:12:22.812Z,56.73
2023-02-15T15:17:39.566Z,50.70
2023-02-15T15:22:45.237Z,53.17
2023-02-15T15:27:55.980Z,53.27
2023-02-15T15:33:35.809Z,55.87
2023-02-15T15:38:57.963Z,62.20
2023-02-15T15:44:25.224Z,56.30
2023-02-15T15:49:37.262Z,50.50
2023-02-15T15:54:48.446Z,47.23
2023-02-15T16:00:01.372Z,57.87
2023-02-15T16:05:14.746Z,53.97
2023-02-15T16:10:35.083Z,58.83
2023-02-15T16:15:55.979Z,57.20
2023-02-15T16:21:03.837Z,52.00
2023-02-15T16:26:31.226Z,58.57
2023-02-15T16:31:38.945Z,52.57
2023-02-15T16:36:54.318Z,60.90
2023-02-15T16:42:03.294Z,69.33
2023-02-15T16:47:26.564Z,58.73
2023-02-15T16:52:32.624Z,54.33
2023-02-15T16:57:41.509Z,57.60
2023-02-15T17:03:15.174Z,58.43
2023-02-15T17:08:45.783Z,58.83
2023-02-15T17:14:12.575Z,57.33
2023-02-15T17:19:25.667Z,58.33
2023-02-15T17:24:38.650Z,56.60
2023-02-15T17:29:53.552Z,55.67
2023-02-15T17:35:24.180Z,56.93
2023-02-15T17:40:34.473Z,67.20
2023-02-15T17:45:50.439Z,55.90
2023-02-15T17:50:56.006Z,60.57
2023-02-15T17:56:12.516Z,58.40
2023-02-15T18:01:39.902Z,58.70
2023-02-15T18:07:04.019Z,62.83
2023-02-15T18:12:30.145Z,65.50
2023-02-15T18:17:38.435Z,66.97
2023-02-15T18:22:44.590Z,65.13
2023-02-15T18:27:51.365Z,64.43
2023-02-15T18:33:03.362Z,63.00
2023-02-15T18:38:10.913Z,61.63
2023-02-15T18:43:19.537Z,63.67
2023-02-15T18:48:27.373Z,63.20
2023-02-15T18:53:32.897Z,65.30
2023-02-15T18:58:39.340Z,64.93
2023-02-15T19:03:51.453Z,66.17
2023-02-15T19:08:56.664Z,71.33
2023-02-15T19:14:06.478Z,91.83
2023-02-15T19:19:15.918Z,86.97
2023-02-15T19:24:37.899Z,90.00
2023-02-15T19:29:44.334Z,78.33
2023-02-15T19:34:50.947Z,73.57
2023-02-15T19:39:59.059Z,70.80
2023-02-15T19:45:10.917Z,65.27
2023-02-15T19:50:27.234Z,66.63
2023-02-15T19:55:38.715Z,57.97
2023-02-15T20:00:44.429Z,64.10
2023-02-15T20:05:50.979Z,61.00
2023-02-15T20:10:58.111Z,55.13
2023-02-15T20:16:07.103Z,58.53
2023-02-15T20:21:17.587Z,58.90
2023-02-15T20:26:24.407Z,58.97
2023-02-15T20:31:34.129Z,52.33
2023-02-15T20:36:41.594Z,57.10
2023-02-15T20:41:49.226Z,53.07
2023-02-15T20:46:59.164Z,57.87
2023-02-15T20:52:18.560Z,56.20
2023-02-15T20:57:25.052Z,64.40
2023-02-15T21:02:30.817Z,61.77
2023-02-15T21:07:37.170Z,54.57
2023-02-15T21:12:43.676Z,52.67
2023-02-15T21:17:50.286Z,61.57
2023-02-15T21:22:55.139Z,66.83
2023-02-15T21:28:00.952Z,77.43
2023-02-15T21:33:06.689Z,72.13
2023-02-15T21:38:17.451Z,80.07
2023-02-15T21:43:43.013Z,78.13
2023-02-15T21:48:47.952Z,74.77
2023-02-15T21:53:51.972Z,75.70
2023-02-15T21:58:56.024Z,73.87
2023-02-15T22:04:00.266Z,79.23
2023-02-15T22:09:23.714Z,71.77
2023-02-15T22:14:38.357Z,64.40
2023-02-15T22:19:41.945Z,55.90
2023-02-15T22:24:46.787Z,61.27
2023-02-15T22:29:51.118Z,61.67
2023-02-15T22:34:54.953Z,64.10
2023-02-15T22:39:58.122Z,65.03
2023-02-15T22:45:01.751Z,66.63
2023-02-15T22:50:24.384Z,66.60
2023-02-15T22:55:31.161Z,76.63
2023-02-15T23:00:40.113Z,80.27
2023-02-15T23:05:43.552Z,76.33
2023-02-15T23:10:52.255Z,88.13
2023-02-15T23:16:04.342Z,72.80
2023-02-15T23:21:25.126Z,76.77
2023-02-15T23:26:34.625Z,77.53
2023-02-15T23:31:40.992Z,72.97
2023-02-15T23:36:44.822Z,77.90
2023-02-15T23:41:48.090Z,85.67
2023-02-15T23:46:51.692Z,79.40
2023-02-15T23:51:57.615Z,89.53
2023-02-15T23:57:05.303Z,79.37
